Estación municipal de St. Julià de Vilatorta (Osona, E.N.Guilleries-Savassona)

Consulta los datos en tiempo real de la estación municipal de St. Julià de Vilatorta





Hora UTC 01:50
Temperatura 7.6 ºC
Subsuelo 10 cm 5.7 ºC
Humedad 94.2 %
Presión 1012.4 hPa
Pluja 0.0 mm
Velocidad viento 1.4 km/h
Dirección viento SE
Radiación solar 0.0 W/m²
Fuel 11.2 %

Webcam

Datos diarios 2026-05-07



Hora UTC (invierno +1h; verano +2h)
Temperatura (ºC) Humedad (%) Presión (hPa) Velocidad viento (km/h) Precipitación (mm) Fuel (%) Radiación solar (W/m²)
Hora UTC Aire Subsuelo 10 cm Humedad Presión Vel. Dir. Vel. Max Dir. Intent. máx 5 min. Fuel Rad. Sol.
00:05 10.7 10.6 80.4 1012.9 2.4 NNE 2.4 NNE 0.0 10.3 0.0
00:10 10.7 10.6 81.3 1012.8 2.8 NE 6.7 NNE 0.0 10.3 0.0
00:15 10.6 10.4 81.6 1012.8 2.2 NE 4.4 NE 0.0 10.3 0.0
00:20 10.6 10.2 82.3 1012.8 3.3 NNW 7.6 NW 0.0 10.3 0.0
00:25 10.5 9.9 83.5 1012.8 4.8 NW 7.5 WNW 0.0 10.4 0.0
00:30 10.1 9.5 84.9 1012.8 4.4 NW 6.4 NW 0.0 10.4 0.0
00:35 9.9 9.1 85.9 1012.8 3.8 NW 6.8 NW 0.0 10.4 0.0
00:40 9.7 8.8 86.9 1012.8 3.0 N 5.9 NNW 0.0 10.4 0.0
00:45 9.4 8.4 88.1 1012.7 2.1 N 5.0 NNW 0.0 10.5 0.0
00:50 9.2 8.0 88.8 1012.7 1.7 ENE 2.9 NE 0.0 10.5 0.0
00:55 9.1 7.6 89.7 1012.7 1.2 E 2.4 ENE 0.0 10.5 0.0
01:00 8.9 7.4 90.0 1012.6 1.3 E 2.4 ENE 0.0 10.6 0.0
01:05 8.6 7.1 90.6 1012.6 1.6 ENE 3.4 NE 0.0 10.6 0.0
01:10 8.4 6.8 91.9 1012.5 2.8 ENE 3.7 NE 0.0 10.7 0.0
01:15 8.3 6.5 93.0 1012.5 2.2 ESE 3.4 SE 0.0 10.7 0.0
01:20 8.4 6.3 93.1 1012.4 1.9 SE 3.1 ESE 0.0 10.8 0.0
01:25 8.3 6.2 92.5 1012.4 1.4 SE 2.1 E 0.0 10.9 0.0
01:30 8.1 6.1 93.1 1012.4 1.8 E 3.6 ESE 0.0 11.0 0.0
01:35 7.9 6.0 93.6 1012.3 2.8 ESE 4.6 ESE 0.0 11.0 0.0
01:40 7.8 5.9 93.9 1012.3 2.4 ESE 4.1 E 0.0 11.0 0.0
01:45 7.7 5.8 94.3 1012.3 3.5 ESE 5.5 SE 0.0 11.1 0.0
01:50 7.6 5.7 94.2 1012.4 1.4 SE 3.1 SE 0.0 11.2 0.0
Máxima 10.7 10.6 94.3 1012.9 4.8 NW 7.6 NW 0.0 11.2 0.0
Mínima 7.6 5.7 80.4 1012.3 10.3
Total 0.0